»·PEaware :: N92RT KDAG-KRIF

N92RT :: KDAG-KRIF

FLIGHT INFORMATION

Flight Status: Arrived
Operator: Privately registered:
United States
More flights under this callsign
Pilot: Drew L. (13237)
Aircraft: SOCATA TBM-900
(TBM9)
More flights by this aircraft type
Origin: KDAG Barstow-Daggett
United States
Destination: KRIF Richfield Mun
United States
More flights between these airports :: More routes between these airports
Route: DAG1 TEELE LAS J100 NORRA
File this flight plan on PilotEdge
Remarks:
Altitude:
(Current/Filed)
31,000ft
Speed:
(Current/Filed)
300kts
Departed: 12-Sep-19 12:24 PM
Arrived: 12-Sep-19 01:35 PM
Distance/Time
Traveled:
324nm/1:11
Distance/Time
To Go:
Arrived

Flight Plot

Page will automatically refresh every two minutes.

Flight plan parsing failed; only flown route is shown


Map Options




Map Legend


Flown Route
Filed Route
Departure Airport
Arrival Airport
Navaid (VOR, NDB)
Fix

Horizontal Profiles

Position Reports

Time Latitude Longitude Heading Altitude Ground
Speed
12-Sep-19 12:17 34.855595 -116.791069 231 1923ft 0kts
12-Sep-19 12:18 34.855595 -116.791069 231 1923ft 0kts
12-Sep-19 12:19 34.855595 -116.791069 231 1923ft 0kts
12-Sep-19 12:20 34.855594 -116.791070 231 1923ft 0kts
12-Sep-19 12:21 34.854682 -116.790852 174 1924ft 2kts
12-Sep-19 12:22 34.852479 -116.796299 271 1932ft 29kts
12-Sep-19 12:23 34.851440 -116.797463 89 1934ft 0kts
12-Sep-19 12:24 34.851499 -116.783668 89 1945ft 134kts
12-Sep-19 12:25 34.863847 -116.731875 56 3538ft 176kts
12-Sep-19 12:26 34.891038 -116.690456 54 6123ft 148kts
12-Sep-19 12:26 34.912275 -116.657157 54 7824ft 153kts
12-Sep-19 12:28 34.943400 -116.608182 53 10318ft 161kts
12-Sep-19 12:28 34.965365 -116.571486 62 12234ft 163kts
12-Sep-19 12:29 34.987237 -116.522520 62 14320ft 167kts
12-Sep-19 12:31 35.013592 -116.463154 61 17182ft 172kts
12-Sep-19 12:31 35.032452 -116.420526 58 19041ft 174kts
12-Sep-19 12:32 35.055980 -116.367578 55 20966ft 182kts
12-Sep-19 12:34 35.098005 -116.317165 39 22980ft 186kts
12-Sep-19 12:34 35.129812 -116.280301 39 24291ft 192kts
12-Sep-19 12:35 35.169156 -116.234660 38 25712ft 199kts
12-Sep-19 12:36 35.210461 -116.186669 38 27358ft 210kts
12-Sep-19 12:37 35.253378 -116.136738 37 29199ft 218kts
12-Sep-19 12:38 35.298433 -116.084241 37 30792ft 229kts
12-Sep-19 12:39 35.348975 -116.025282 38 31215ft 279kts
12-Sep-19 12:40 35.409040 -115.954953 39 31195ft 312kts
12-Sep-19 12:41 35.473152 -115.879765 39 31195ft 325kts
12-Sep-19 12:42 35.539127 -115.802226 39 31213ft 330kts
12-Sep-19 12:43 35.605838 -115.723634 39 31234ft 332kts
12-Sep-19 12:44 35.672417 -115.645007 39 31248ft 333kts
12-Sep-19 12:45 35.739476 -115.565619 39 31249ft 334kts
12-Sep-19 12:46 35.806376 -115.486223 39 31249ft 334kts
12-Sep-19 12:47 35.873285 -115.406619 39 31243ft 334kts
12-Sep-19 12:48 35.940236 -115.326771 40 31228ft 334kts
12-Sep-19 12:49 36.007232 -115.246667 40 31233ft 333kts
12-Sep-19 12:50 36.074053 -115.166569 40 31227ft 334kts
12-Sep-19 12:51 36.139292 -115.084473 41 31207ft 335kts
12-Sep-19 12:52 36.204485 -115.001881 41 31196ft 335kts
12-Sep-19 12:53 36.269922 -114.918774 41 31193ft 336kts
12-Sep-19 12:54 36.335272 -114.835559 41 31193ft 336kts
12-Sep-19 12:55 36.400160 -114.751787 41 31193ft 336kts
12-Sep-19 12:56 36.464733 -114.667657 41 31194ft 336kts
12-Sep-19 12:57 36.529401 -114.583184 41 31194ft 336kts
12-Sep-19 12:58 36.593970 -114.498621 41 31194ft 336kts
12-Sep-19 12:59 36.658244 -114.414225 41 31215ft 336kts
12-Sep-19 13:00 36.722521 -114.329609 42 31241ft 336kts
12-Sep-19 13:01 36.789449 -114.249018 36 31274ft 332kts
12-Sep-19 13:02 36.859897 -114.173853 36 31282ft 333kts
12-Sep-19 13:03 36.930749 -114.098228 38 31259ft 337kts
12-Sep-19 13:04 37.002596 -114.020852 36 31270ft 339kts
12-Sep-19 13:05 37.073753 -113.944560 35 31253ft 336kts
12-Sep-19 13:06 37.144871 -113.867947 35 31257ft 336kts
12-Sep-19 13:07 37.215905 -113.791215 35 31258ft 336kts
12-Sep-19 13:08 37.286866 -113.714355 35 31258ft 337kts
12-Sep-19 13:09 37.357539 -113.637610 35 31258ft 337kts
12-Sep-19 13:10 37.428600 -113.560254 35 31050ft 343kts
12-Sep-19 13:11 37.502532 -113.479568 36 29699ft 356kts
12-Sep-19 13:12 37.577339 -113.397681 36 28329ft 356kts
12-Sep-19 13:13 37.651778 -113.315972 37 26932ft 353kts
12-Sep-19 13:14 37.725370 -113.234954 37 25482ft 342kts
12-Sep-19 13:15 37.794566 -113.158594 37 23934ft 321kts
12-Sep-19 13:16 37.860222 -113.085961 38 22423ft 313kts
12-Sep-19 13:17 37.924802 -113.014330 38 20913ft 308kts
12-Sep-19 13:18 37.989160 -112.942761 38 19658ft 301kts
12-Sep-19 13:19 38.051448 -112.873347 38 18822ft 296kts
12-Sep-19 13:20 38.113980 -112.803513 39 17633ft 304kts
12-Sep-19 13:21 38.177610 -112.732253 39 16446ft 306kts
12-Sep-19 13:22 38.241438 -112.660605 39 15249ft 306kts
12-Sep-19 13:23 38.306405 -112.597183 21 15026ft 281kts
12-Sep-19 13:24 38.377730 -112.559405 20 15017ft 273kts
12-Sep-19 13:25 38.447018 -112.513833 35 14243ft 291kts
12-Sep-19 13:26 38.511155 -112.451654 35 13619ft 291kts
12-Sep-19 13:27 38.567685 -112.379162 50 12404ft 279kts
12-Sep-19 13:28 38.612656 -112.302713 69 10845ft 259kts
12-Sep-19 13:29 38.634104 -112.219085 71 9507ft 229kts
12-Sep-19 13:30 38.656113 -112.154341 39 7519ft 187kts
12-Sep-19 13:31 38.692210 -112.128260 26 6068ft 117kts
12-Sep-19 13:32 38.718308 -112.111686 29 5589ft 92kts
12-Sep-19 13:33 38.737268 -112.099567 26 5284ft 50kts
12-Sep-19 13:34 38.743816 -112.097025 278 5285ft 5kts
12-Sep-19 13:35 38.743834 -112.097166 285 5285ft 0kts
12-Sep-19 13:36 38.743834 -112.097166 285 5285ft 0kts
12-Sep-19 13:37 38.743834 -112.097166 285 5285ft 0kts

Navigation Log

Ident Type
Flight plan parsing failed, navigation log unavailable